Time;durP1;ratioP1;P1;durP2;ratioP2;P2;SDS_P1;SDS_P2;PMS_P1;PMS_P2;Temp;Humidity;BMP_temperature;BMP_pressure;BME280_temperature;BME280_humidity;BME280_pressure;Samples;Min_cycle;Max_cycle;Signal;HPM_P1;HPM_P2
2023/09/18 00:01:55;;;;;;;5.80;3.90;;;;;;;26.97;40.11;101501.25;103045;1307;61394;-82
2023/09/18 00:04:20;;;;;;;6.10;3.50;;;;;;;26.97;39.97;101502.52;103128;1297;61532;-83
2023/09/18 00:06:46;;;;;;;5.70;3.40;;;;;;;26.97;40.04;101501.62;102958;1297;61434;-82
2023/09/18 00:09:13;;;;;;;6.10;3.80;;;;;;;26.97;40.13;101497.48;103009;1293;61351;-83
2023/09/18 00:11:40;;;;;;;5.30;3.50;;;;;;;26.96;39.88;101499.49;103187;1294;63581;-82
2023/09/18 00:14:07;;;;;;;5.30;3.30;;;;;;;26.96;39.82;101502.39;102890;1293;61411;-83
2023/09/18 00:16:32;;;;;;;4.80;3.60;;;;;;;26.96;39.91;101497.01;102833;1294;61455;-82
2023/09/18 00:18:58;;;;;;;6.00;3.70;;;;;;;26.96;40.05;101495.75;102777;1300;61396;-83
2023/09/18 00:21:25;;;;;;;4.90;3.40;;;;;;;26.96;40.06;101495.94;102721;1295;62165;-82
2023/09/18 00:23:52;;;;;;;4.90;3.70;;;;;;;26.96;39.95;101496.13;103124;1292;61318;-82
2023/09/18 00:26:17;;;;;;;6.80;3.60;;;;;;;26.96;40.11;101494.11;103175;1297;63184;-82
2023/09/18 00:28:43;;;;;;;4.90;3.20;;;;;;;26.96;40.22;101495.77;102792;1297;61792;-82
2023/09/18 00:31:09;;;;;;;5.40;3.40;;;;;;;26.95;40.03;101496.90;102799;1299;61487;-82
2023/09/18 00:33:35;;;;;;;6.10;3.10;;;;;;;26.96;40.04;101498.32;103244;1297;61486;-82
2023/09/18 00:36:01;;;;;;;5.90;3.60;;;;;;;26.96;39.98;101500.49;103013;1292;61306;-82
2023/09/18 00:38:26;;;;;;;5.40;3.40;;;;;;;26.95;40.09;101496.55;103154;1296;61396;-83
2023/09/18 00:40:52;;;;;;;4.40;3.20;;;;;;;26.95;39.93;101496.19;103196;1297;61854;-82
2023/09/18 00:43:17;;;;;;;5.40;3.10;;;;;;;26.95;40.02;101496.95;103041;1297;62083;-81
2023/09/18 00:45:45;;;;;;;5.10;3.20;;;;;;;26.94;39.89;101499.48;102977;1297;62219;-82
2023/09/18 00:48:10;;;;;;;6.20;3.20;;;;;;;26.94;40.09;101496.42;103194;1293;61381;-81
2023/09/18 00:50:38;;;;;;;4.60;3.20;;;;;;;26.94;40.13;101491.36;102790;1299;61425;-82
2023/09/18 00:53:03;;;;;;;4.90;3.60;;;;;;;26.94;40.04;101490.83;103134;1297;61402;-82
2023/09/18 00:55:29;;;;;;;5.30;3.20;;;;;;;26.93;39.89;101490.36;102929;1297;61489;-82
2023/09/18 00:57:55;;;;;;;4.80;3.30;;;;;;;26.94;39.88;101489.79;102729;1297;61322;-81
2023/09/18 01:00:22;;;;;;;6.10;3.30;;;;;;;26.94;40.21;101489.23;102969;1297;61333;-82
2023/09/18 01:02:47;;;;;;;4.20;3.10;;;;;;;26.93;40.14;101488.75;103027;1298;61360;-82
2023/09/18 01:05:16;;;;;;;5.30;3.30;;;;;;;26.93;39.83;101492.73;102912;1300;61792;-82
2023/09/18 01:07:44;;;;;;;5.00;3.50;;;;;;;26.93;39.86;101491.14;102931;1293;65683;-82
2023/09/18 01:10:10;;;;;;;5.50;3.50;;;;;;;26.92;40.08;101492.05;103121;1296;61287;-82
2023/09/18 01:12:44;;;;;;;5.60;3.50;;;;;;;26.92;40.06;101490.23;103250;1296;61443;-82
2023/09/18 01:15:25;;;;;;;5.10;3.10;;;;;;;26.92;39.83;101487.77;103176;1297;64123;-82
2023/09/18 01:17:51;;;;;;;5.40;3.00;;;;;;;26.92;40.08;101485.60;103128;1293;65569;-83
2023/09/18 01:20:17;;;;;;;5.10;3.30;;;;;;;26.91;40.11;101483.64;103104;1294;61363;-83
2023/09/18 01:22:43;;;;;;;5.00;3.20;;;;;;;26.91;40.14;101476.42;102940;1298;62175;-82
2023/09/18 01:25:09;;;;;;;6.20;3.20;;;;;;;26.92;39.95;101478.94;103072;1301;61410;-82
2023/09/18 01:27:34;;;;;;;4.90;3.30;;;;;;;26.92;40.05;101479.83;102934;1292;61482;-82
2023/09/18 01:30:00;;;;;;;5.30;3.30;;;;;;;26.91;40.14;101475.56;103406;1298;62112;-83
2023/09/18 01:32:28;;;;;;;4.50;3.30;;;;;;;26.91;40.08;101475.57;102972;1292;61388;-82
2023/09/18 01:34:56;;;;;;;4.60;2.90;;;;;;;26.91;39.97;101474.52;102975;1299;61285;-83
2023/09/18 01:37:24;;;;;;;6.10;3.10;;;;;;;26.91;39.91;101478.84;102977;1307;63829;-83
2023/09/18 01:39:50;;;;;;;5.50;2.80;;;;;;;26.91;40.03;101477.55;102853;1293;65864;-83
2023/09/18 01:42:16;;;;;;;4.30;2.90;;;;;;;26.90;39.88;101479.21;103017;1298;62391;-83
2023/09/18 01:44:41;;;;;;;5.00;3.00;;;;;;;26.90;39.95;101477.63;103140;1293;61497;-83
2023/09/18 01:47:09;;;;;;;4.70;3.10;;;;;;;26.90;40.09;101483.91;102966;1294;61521;-82
2023/09/18 01:49:36;;;;;;;5.10;3.00;;;;;;;26.90;40.07;101482.89;103074;1297;61405;-83
2023/09/18 01:52:04;;;;;;;4.40;2.90;;;;;;;26.90;40.02;101484.49;102996;1293;61297;-83
2023/09/18 01:54:30;;;;;;;5.20;2.90;;;;;;;26.90;40.27;101485.25;102890;1298;61483;-83
2023/09/18 01:56:58;;;;;;;5.70;3.10;;;;;;;26.90;40.28;101484.34;102856;1299;61315;-83
2023/09/18 01:59:24;;;;;;;4.40;3.00;;;;;;;26.89;40.25;101484.02;103126;1292;65856;-83
2023/09/18 02:01:50;;;;;;;4.50;3.10;;;;;;;26.89;40.15;101485.98;102988;1298;61398;-83
2023/09/18 02:04:16;;;;;;;5.20;3.30;;;;;;;26.89;40.21;101484.95;102966;1297;61390;-83
2023/09/18 02:06:43;;;;;;;5.30;3.30;;;;;;;26.89;40.08;101480.08;103213;1292;61370;-83
2023/09/18 02:09:10;;;;;;;4.80;2.90;;;;;;;26.89;40.08;101480.79;102913;1297;62156;-83
2023/09/18 02:11:40;;;;;;;4.50;2.80;;;;;;;26.89;40.16;101483.70;102945;1299;61312;-83
2023/09/18 02:14:06;;;;;;;4.50;3.00;;;;;;;26.89;40.13;101484.79;102776;1292;63048;-83
2023/09/18 02:16:33;;;;;;;5.20;3.10;;;;;;;26.88;39.99;101482.48;103255;1295;61219;-83
2023/09/18 02:18:59;;;;;;;4.10;3.00;;;;;;;26.88;39.98;101480.14;102903;1298;61400;-83
2023/09/18 02:21:25;;;;;;;6.30;3.20;;;;;;;26.88;40.03;101478.88;102911;1298;61409;-83
2023/09/18 02:23:52;;;;;;;4.30;3.00;;;;;;;26.88;39.99;101480.70;102978;1292;61482;-83
2023/09/18 02:26:19;;;;;;;4.60;3.20;;;;;;;26.88;40.15;101484.13;102843;1299;61794;-82
2023/09/18 02:28:44;;;;;;;5.40;3.10;;;;;;;26.87;40.06;101484.00;102803;1294;61472;-82
2023/09/18 02:31:10;;;;;;;4.60;2.80;;;;;;;26.88;39.88;101483.77;103140;1297;61500;-82
2023/09/18 02:33:36;;;;;;;4.70;3.10;;;;;;;26.87;40.00;101482.04;102948;1293;61880;-82
2023/09/18 02:36:02;;;;;;;4.90;3.10;;;;;;;26.87;39.80;101484.74;103141;1294;61713;-82
2023/09/18 02:38:28;;;;;;;4.60;3.20;;;;;;;26.87;39.88;101488.38;103127;1297;61399;-82
2023/09/18 02:40:54;;;;;;;4.60;2.80;;;;;;;26.87;39.74;101491.96;102925;1292;65595;-82
2023/09/18 02:43:20;;;;;;;5.00;3.10;;;;;;;26.87;39.86;101497.04;102883;1298;61407;-83
2023/09/18 02:45:46;;;;;;;4.70;3.20;;;;;;;26.86;39.82;101502.67;102966;1293;61487;-83
2023/09/18 02:48:12;;;;;;;4.50;2.90;;;;;;;26.87;40.06;101504.08;102768;1297;61357;-82
2023/09/18 02:50:37;;;;;;;4.40;3.00;;;;;;;26.87;39.92;101503.20;102926;1297;61764;-82
2023/09/18 02:53:07;;;;;;;5.20;3.30;;;;;;;26.87;39.89;101505.54;102994;1293;61451;-83
2023/09/18 02:55:32;;;;;;;4.50;3.10;;;;;;;26.86;39.98;101507.92;102915;1292;61406;-83
2023/09/18 02:57:58;;;;;;;5.20;3.40;;;;;;;26.86;39.90;101509.92;102887;1298;61574;-83
2023/09/18 03:00:24;;;;;;;4.00;3.00;;;;;;;26.86;39.82;101511.03;102897;1294;61487;-83
2023/09/18 03:02:50;;;;;;;4.90;2.80;;;;;;;26.86;39.92;101505.64;103247;1297;61418;-83
2023/09/18 03:05:15;;;;;;;4.90;3.20;;;;;;;26.86;39.93;101507.61;102710;1294;363967;-83
2023/09/18 03:07:41;;;;;;;5.40;2.80;;;;;;;26.86;39.84;101507.27;102970;1298;61449;-83
2023/09/18 03:10:07;;;;;;;5.20;3.30;;;;;;;26.86;39.79;101512.83;103076;1294;61504;-83
2023/09/18 03:12:33;;;;;;;7.30;3.20;;;;;;;26.85;39.93;101513.26;102889;1298;62109;-83
2023/09/18 03:14:59;;;;;;;5.50;3.40;;;;;;;26.85;40.16;101514.54;103001;1294;61883;-83
2023/09/18 03:17:25;;;;;;;4.60;3.20;;;;;;;26.85;40.04;101515.79;102688;1302;61450;-83
2023/09/18 03:19:50;;;;;;;3.60;2.50;;;;;;;26.85;39.86;101517.27;103042;1295;61457;-83
2023/09/18 03:22:16;;;;;;;5.40;3.00;;;;;;;26.85;39.89;101515.30;102929;1300;61489;-83
2023/09/18 03:24:41;;;;;;;5.90;3.00;;;;;;;26.85;39.86;101518.19;102915;1299;61850;-83
2023/09/18 03:27:07;;;;;;;4.30;3.00;;;;;;;26.85;39.85;101518.53;103123;1296;61414;-82
2023/09/18 03:29:32;;;;;;;4.40;3.30;;;;;;;26.85;40.04;101518.18;103038;1296;61313;-82
2023/09/18 03:31:59;;;;;;;4.70;3.10;;;;;;;26.84;39.73;101521.08;102801;1298;61425;-82
2023/09/18 03:34:26;;;;;;;4.70;3.10;;;;;;;26.85;39.73;101521.46;102998;1295;61329;-82
2023/09/18 03:36:53;;;;;;;4.80;3.10;;;;;;;26.84;39.75;101523.10;103300;1293;61453;-83
2023/09/18 03:39:19;;;;;;;3.90;2.80;;;;;;;26.83;39.85;101521.73;103616;1293;61327;-83
2023/09/18 03:41:45;;;;;;;4.70;3.10;;;;;;;26.82;39.90;101522.35;103455;1294;61391;-83
2023/09/18 03:44:11;;;;;;;4.90;3.20;;;;;;;26.81;39.85;101523.00;103777;1297;61285;-83
2023/09/18 03:46:37;;;;;;;9.20;3.20;;;;;;;26.80;39.72;101524.19;103390;1292;61937;-83
2023/09/18 03:49:02;;;;;;;4.50;3.20;;;;;;;26.79;40.14;101525.89;103695;1296;61353;-83
2023/09/18 03:51:29;;;;;;;7.20;3.30;;;;;;;26.78;39.93;101527.24;103748;1294;61325;-83
2023/09/18 03:53:55;;;;;;;6.50;3.90;;;;;;;26.76;39.61;101525.61;103843;1293;61408;-83
2023/09/18 03:56:21;;;;;;;7.50;3.70;;;;;;;26.74;39.42;101529.55;103823;1293;65909;-83
2023/09/18 03:58:49;;;;;;;5.70;3.60;;;;;;;26.71;39.14;101529.08;103628;1294;61156;-83
2023/09/18 04:01:16;;;;;;;6.00;4.00;;;;;;;26.69;39.11;101531.80;103589;1298;61377;-83
2023/09/18 04:03:41;;;;;;;7.20;4.00;;;;;;;26.66;38.83;101536.01;103811;1296;61391;-83
2023/09/18 04:06:07;;;;;;;9.80;3.90;;;;;;;26.64;38.67;101540.33;103666;1295;62952;-83
2023/09/18 04:08:32;;;;;;;7.20;4.50;;;;;;;26.61;38.77;101541.45;103868;1294;61387;-83
2023/09/18 04:10:58;;;;;;;7.50;3.80;;;;;;;26.57;38.45;101542.46;103562;1293;61848;-83
2023/09/18 04:13:24;;;;;;;8.10;4.30;;;;;;;26.54;38.29;101547.23;103630;1293;61507;-83
2023/09/18 04:15:50;;;;;;;12.20;4.30;;;;;;;26.50;38.23;101549.17;103837;1292;64006;-83
2023/09/18 04:18:16;;;;;;;17.70;4.80;;;;;;;26.45;38.17;101549.81;103755;1293;61504;-83
2023/09/18 04:20:42;;;;;;;13.30;5.40;;;;;;;26.40;38.31;101548.39;103934;1293;61383;-83
2023/09/18 04:23:19;;;;;;;7.40;3.80;;;;;;;26.37;38.18;101550.10;103623;1293;61428;-83
2023/09/18 04:25:45;;;;;;;8.60;4.40;;;;;;;26.36;38.31;101551.48;103662;1294;63858;-82
2023/09/18 04:28:13;;;;;;;6.20;4.10;;;;;;;26.35;38.31;101549.54;102767;1292;64762;-83
2023/09/18 04:30:39;;;;;;;7.60;4.00;;;;;;;26.35;38.23;101548.42;103611;1292;61308;-83
2023/09/18 04:33:05;;;;;;;7.50;4.00;;;;;;;26.35;38.27;101550.25;103711;1292;61544;-83
2023/09/18 04:35:31;;;;;;;8.80;4.40;;;;;;;26.33;38.36;101549.49;103645;1297;61407;-83
2023/09/18 04:37:58;;;;;;;9.90;4.00;;;;;;;26.32;38.21;101552.87;103776;1293;61492;-83
2023/09/18 04:40:24;;;;;;;11.00;5.30;;;;;;;26.31;38.14;101556.59;103914;1294;61497;-83
2023/09/18 04:42:50;;;;;;;11.10;5.10;;;;;;;26.28;38.07;101554.65;104398;1292;60720;-83
2023/09/18 04:45:16;;;;;;;10.80;5.20;;;;;;;26.23;37.92;101555.24;103654;1293;61345;-81
2023/09/18 04:47:41;;;;;;;11.00;5.20;;;;;;;26.17;37.88;101558.05;103942;1294;61367;-82
2023/09/18 04:50:08;;;;;;;9.50;5.20;;;;;;;26.12;37.80;101561.13;104399;1294;61306;-82
2023/09/18 04:52:34;;;;;;;14.10;6.20;;;;;;;26.06;37.86;101561.98;104288;1292;61363;-82
2023/09/18 04:55:01;;;;;;;11.10;6.10;;;;;;;25.81;37.55;101567.93;104185;1294;59412;-82
2023/09/18 04:57:26;;;;;;;12.10;6.20;;;;;;;25.36;37.64;101571.27;104272;1293;61329;-80
2023/09/18 04:59:52;;;;;;;9.70;5.70;;;;;;;24.98;37.85;101568.88;104351;1293;61446;-83
2023/09/18 05:02:17;;;;;;;13.50;5.20;;;;;;;24.45;38.16;101570.83;104412;1293;60539;-82
2023/09/18 05:04:45;;;;;;;8.30;5.40;;;;;;;24.01;38.70;101572.96;104487;1291;61408;-82
2023/09/18 05:07:10;;;;;;;8.50;4.80;;;;;;;24.05;39.16;101574.64;104343;1292;61127;-82
2023/09/18 05:09:36;;;;;;;10.90;5.30;;;;;;;24.29;39.37;101573.63;104119;1292;61293;-82
2023/09/18 05:12:08;;;;;;;6.30;4.20;;;;;;;24.50;39.19;101572.85;104273;1292;61336;-81
2023/09/18 05:14:34;;;;;;;8.90;5.20;;;;;;;24.67;39.10;101568.34;104429;1295;61061;-83
2023/09/18 05:17:00;;;;;;;11.10;5.20;;;;;;;24.67;38.85;101565.99;104126;1292;61174;-83
2023/09/18 05:19:25;;;;;;;10.50;4.90;;;;;;;24.62;38.82;101564.23;104212;1293;61428;-80
2023/09/18 05:21:52;;;;;;;7.60;4.60;;;;;;;24.70;38.81;101568.52;103977;1293;61509;-81
2023/09/18 05:24:26;;;;;;;9.60;4.50;;;;;;;24.83;38.89;101569.31;103784;1292;61427;-81
2023/09/18 05:26:53;;;;;;;6.90;4.20;;;;;;;24.98;38.87;101570.16;104262;1293;61287;-81
2023/09/18 05:29:20;;;;;;;9.80;4.60;;;;;;;25.12;38.66;101571.30;104043;1294;63901;-81
2023/09/18 05:31:46;;;;;;;12.10;4.30;;;;;;;25.24;38.68;101570.00;103803;1297;61474;-81
2023/09/18 05:34:12;;;;;;;9.70;4.30;;;;;;;25.35;38.65;101568.27;104096;1295;61394;-82
2023/09/18 05:36:38;;;;;;;11.10;4.20;;;;;;;25.43;38.44;101565.27;104366;1297;59835;-82
2023/09/18 05:39:04;;;;;;;9.40;4.10;;;;;;;25.52;38.45;101564.09;103970;1293;61428;-83
2023/09/18 05:41:30;;;;;;;7.30;4.50;;;;;;;25.58;38.37;101564.50;103922;1292;61328;-82
2023/09/18 05:43:58;;;;;;;7.70;4.30;;;;;;;25.65;38.50;101562.30;103970;1292;61407;-83
2023/09/18 05:46:25;;;;;;;7.70;4.20;;;;;;;25.71;38.32;101562.75;104239;1291;59482;-82
2023/09/18 05:48:50;;;;;;;8.10;4.40;;;;;;;25.77;38.40;101564.10;103990;1291;61328;-82
2023/09/18 05:51:16;;;;;;;8.80;4.70;;;;;;;25.80;38.26;101562.62;104034;1292;61339;-83
2023/09/18 05:53:42;;;;;;;9.90;5.70;;;;;;;25.74;38.16;101566.30;104482;1293;60110;-85
2023/09/18 05:56:09;;;;;;;13.30;6.00;;;;;;;25.62;37.95;101569.80;104811;1293;59722;-83
2023/09/18 05:58:35;;;;;;;10.40;4.70;;;;;;;25.44;38.02;101572.65;104841;1293;59299;-81
2023/09/18 06:01:01;;;;;;;14.20;5.60;;;;;;;25.37;38.16;101574.75;104710;1299;61318;-81
2023/09/18 06:03:30;;;;;;;11.70;4.40;;;;;;;25.35;38.23;101580.67;104680;1295;60294;-81
2023/09/18 06:05:56;;;;;;;11.30;5.40;;;;;;;25.37;38.38;101578.20;104955;1293;61370;-81
2023/09/18 06:08:24;;;;;;;11.10;4.80;;;;;;;25.36;38.58;101577.17;104663;1295;61266;-83
2023/09/18 06:10:50;;;;;;;14.20;5.20;;;;;;;25.37;38.35;101580.90;104212;1292;63811;-83
2023/09/18 06:13:16;;;;;;;10.90;4.80;;;;;;;25.43;38.43;101580.66;104817;1291;61296;-83
2023/09/18 06:15:41;;;;;;;9.30;5.20;;;;;;;25.44;38.34;101585.61;104687;1293;61344;-82
2023/09/18 06:18:07;;;;;;;9.30;5.10;;;;;;;25.31;38.40;101589.10;104630;1293;59293;-83
2023/09/18 06:20:33;;;;;;;11.80;6.10;;;;;;;25.27;38.48;101583.48;104736;1294;61271;-82
2023/09/18 06:22:58;;;;;;;10.40;5.20;;;;;;;25.26;38.44;101583.66;104699;1291;64023;-83
2023/09/18 06:25:24;;;;;;;9.60;5.10;;;;;;;25.30;38.29;101582.89;105006;1293;61487;-82
2023/09/18 06:27:50;;;;;;;14.60;4.80;;;;;;;25.33;38.35;101586.65;104432;1293;61334;-82
2023/09/18 06:30:15;;;;;;;7.80;4.50;;;;;;;25.33;38.48;101584.11;104481;1292;59548;-82
2023/09/18 06:32:41;;;;;;;15.80;5.00;;;;;;;25.40;38.34;101583.92;104446;1298;61400;-82
2023/09/18 06:35:08;;;;;;;15.00;4.80;;;;;;;25.46;38.47;101585.30;104265;1294;61569;-82
2023/09/18 06:37:33;;;;;;;11.70;4.80;;;;;;;25.49;38.29;101586.11;104395;1293;65769;-82
2023/09/18 06:39:59;;;;;;;10.90;4.50;;;;;;;25.42;38.37;101584.14;104606;1293;61245;-83
2023/09/18 06:42:25;;;;;;;11.00;4.70;;;;;;;25.41;38.14;101583.88;104269;1291;61376;-83
2023/09/18 06:44:50;;;;;;;8.10;4.50;;;;;;;25.43;38.23;101583.91;104242;1295;59775;-82
2023/09/18 06:47:16;;;;;;;9.50;4.80;;;;;;;25.42;38.27;101589.55;104573;1294;61404;-83
2023/09/18 06:49:42;;;;;;;10.50;4.60;;;;;;;25.38;38.31;101583.92;104526;1291;62239;-82
2023/09/18 06:52:09;;;;;;;11.30;5.00;;;;;;;25.36;38.50;101589.09;104858;1293;61383;-83
2023/09/18 06:54:36;;;;;;;12.10;5.00;;;;;;;25.34;38.36;101588.71;104486;1291;61393;-82
2023/09/18 06:57:03;;;;;;;14.10;5.00;;;;;;;25.26;38.44;101588.06;104303;1293;63803;-83
2023/09/18 06:59:29;;;;;;;10.10;4.80;;;;;;;25.15;38.55;101583.48;104596;1293;65780;-83
2023/09/18 07:01:55;;;;;;;12.40;4.40;;;;;;;25.15;38.72;101584.41;104512;1292;61382;-82
2023/09/18 07:04:21;;;;;;;10.60;4.50;;;;;;;25.20;38.93;101587.07;104819;1291;58847;-81
2023/09/18 07:06:47;;;;;;;12.90;4.50;;;;;;;25.24;38.74;101587.98;104732;1292;61660;-82
2023/09/18 07:09:13;;;;;;;14.70;4.50;;;;;;;25.25;38.71;101588.08;104230;1292;61414;-84
2023/09/18 07:11:39;;;;;;;9.90;4.40;;;;;;;25.24;38.65;101588.33;104502;1293;61291;-82
2023/09/18 07:14:05;;;;;;;13.10;4.50;;;;;;;25.23;38.87;101591.48;104533;1292;61335;-83
2023/09/18 07:16:31;;;;;;;10.10;4.20;;;;;;;25.24;38.93;101589.27;104322;1293;61248;-83
2023/09/18 07:18:58;;;;;;;7.50;4.40;;;;;;;25.29;38.90;101592.89;104503;1291;59340;-83
2023/09/18 07:21:23;;;;;;;10.40;4.10;;;;;;;25.29;38.70;101594.31;104508;1293;61370;-82
2023/09/18 07:23:50;;;;;;;8.00;4.20;;;;;;;25.22;38.68;101591.79;104903;1294;59079;-84
2023/09/18 07:26:16;;;;;;;8.90;4.30;;;;;;;25.20;38.76;101593.34;104649;1293;61363;-82
2023/09/18 07:28:44;;;;;;;9.10;4.30;;;;;;;25.22;38.67;101598.27;104490;1292;61305;-83
2023/09/18 07:31:12;;;;;;;9.10;4.10;;;;;;;25.25;38.67;101601.79;104739;1292;66058;-82
2023/09/18 07:33:38;;;;;;;7.80;4.00;;;;;;;25.28;38.64;101604.66;104286;1291;61199;-83
2023/09/18 07:36:04;;;;;;;12.30;4.40;;;;;;;25.31;38.69;101602.58;104799;1291;59085;-82
2023/09/18 07:38:30;;;;;;;9.80;5.00;;;;;;;25.37;38.75;101602.88;104606;1291;61430;-83
2023/09/18 07:40:56;;;;;;;12.30;4.10;;;;;;;25.40;38.63;101599.97;104798;1292;61301;-83
2023/09/18 07:43:22;;;;;;;7.50;4.30;;;;;;;25.37;38.60;101602.36;104718;1294;61373;-83
2023/09/18 07:45:49;;;;;;;9.40;4.50;;;;;;;25.25;38.56;101600.76;104432;1293;59144;-83
2023/09/18 07:48:17;;;;;;;9.70;4.10;;;;;;;25.19;38.48;101602.09;104909;1293;61259;-83
2023/09/18 07:50:49;;;;;;;11.40;4.40;;;;;;;25.19;38.61;101598.13;104674;1293;65816;-83
2023/09/18 07:53:15;;;;;;;9.80;3.60;;;;;;;25.23;38.51;101601.73;104640;1297;61294;-83
2023/09/18 07:55:41;;;;;;;14.30;4.20;;;;;;;25.26;38.67;101602.43;104740;1294;61434;-83
2023/09/18 07:58:07;;;;;;;10.50;4.30;;;;;;;25.31;38.75;101598.47;104834;1297;61449;-83
2023/09/18 08:00:33;;;;;;;10.10;4.30;;;;;;;25.38;38.80;101591.81;104660;1292;61428;-83
2023/09/18 08:03:00;;;;;;;8.80;4.40;;;;;;;25.46;38.76;101588.20;104667;1292;61114;-82
2023/09/18 08:05:30;;;;;;;6.40;4.00;;;;;;;25.53;38.72;101591.36;104777;1293;59205;-84
2023/09/18 08:07:56;;;;;;;7.00;4.00;;;;;;;25.59;38.61;101590.33;104913;1294;62746;-83
2023/09/18 08:10:23;;;;;;;6.20;3.70;;;;;;;25.63;38.56;101586.83;104940;1293;63292;-83
2023/09/18 08:12:51;;;;;;;7.40;3.40;;;;;;;25.65;38.43;101588.64;104920;1293;61424;-83
2023/09/18 08:15:17;;;;;;;5.50;3.60;;;;;;;25.68;38.19;101582.13;104721;1294;61319;-82
2023/09/18 08:17:43;;;;;;;5.40;3.50;;;;;;;25.70;38.02;101583.02;104903;1292;60924;-83
2023/09/18 08:20:13;;;;;;;5.10;3.40;;;;;;;25.73;37.81;101584.23;104439;1294;61332;-83
2023/09/18 08:22:40;;;;;;;5.50;3.60;;;;;;;25.74;37.84;101579.29;104542;1293;61269;-81
2023/09/18 08:25:13;;;;;;;6.50;3.70;;;;;;;25.76;37.58;101576.58;104809;1294;59286;-83
2023/09/18 08:27:41;;;;;;;6.10;3.70;;;;;;;25.79;37.77;101571.67;104709;1294;64025;-83
2023/09/18 08:30:09;;;;;;;6.10;4.00;;;;;;;25.81;37.53;101571.52;104421;1292;65959;-82
2023/09/18 08:32:36;;;;;;;6.50;3.70;;;;;;;25.81;37.18;101571.03;104811;1294;61277;-82
2023/09/18 08:35:02;;;;;;;9.90;4.10;;;;;;;25.81;37.30;101570.46;104713;1294;61316;-83
2023/09/18 08:37:27;;;;;;;8.00;4.10;;;;;;;25.81;37.25;101565.08;104800;1293;61389;-83
2023/09/18 08:39:54;;;;;;;5.60;3.80;;;;;;;25.81;37.01;101566.90;104569;1293;63153;-83
2023/09/18 08:42:20;;;;;;;8.40;3.90;;;;;;;25.80;37.07;101567.83;104639;1294;61305;-83
2023/09/18 08:44:46;;;;;;;7.00;4.10;;;;;;;25.79;36.95;101564.64;104908;1292;61167;-83
2023/09/18 08:47:12;;;;;;;7.90;4.30;;;;;;;25.80;36.85;101561.15;104591;1294;61337;-83
2023/09/18 08:49:37;;;;;;;14.60;4.50;;;;;;;25.82;36.84;101563.34;104771;1299;60100;-83
2023/09/18 08:52:03;;;;;;;7.90;4.40;;;;;;;25.80;36.63;101564.61;105066;1293;61404;-83
2023/09/18 08:54:29;;;;;;;11.80;4.90;;;;;;;25.76;36.58;101565.63;104943;1291;61124;-82
2023/09/18 08:56:54;;;;;;;13.90;4.50;;;;;;;25.73;36.69;101566.74;105147;1296;59338;-83
2023/09/18 08:59:22;;;;;;;12.00;4.50;;;;;;;25.76;36.88;101559.67;105268;1293;59198;-83
2023/09/18 09:01:48;;;;;;;14.00;4.50;;;;;;;25.77;36.89;101554.02;105138;1291;61162;-82
2023/09/18 09:04:13;;;;;;;10.70;4.60;;;;;;;25.71;36.72;101550.73;105117;1292;59715;-81
2023/09/18 09:06:41;;;;;;;25.40;4.90;;;;;;;25.62;36.87;101547.08;105096;1291;61311;-82
2023/09/18 09:09:07;;;;;;;15.20;4.80;;;;;;;25.60;36.74;101549.53;105038;1294;60978;-82
2023/09/18 09:11:34;;;;;;;10.50;4.70;;;;;;;25.64;36.80;101547.98;105080;1293;59118;-83
2023/09/18 09:14:17;;;;;;;13.80;4.70;;;;;;;25.71;36.78;101547.41;105120;1294;59386;-82
2023/09/18 09:16:49;;;;;;;8.60;4.40;;;;;;;25.74;36.65;101545.19;105123;1293;61285;-81
2023/09/18 09:19:18;;;;;;;9.30;4.30;;;;;;;25.75;36.56;101539.21;104976;1293;63937;-81
2023/09/18 09:21:44;;;;;;;10.90;4.60;;;;;;;25.78;36.56;101536.11;104570;1293;65818;-81
2023/09/18 09:24:14;;;;;;;8.60;4.20;;;;;;;25.81;36.42;101533.52;104963;1294;61093;-81
2023/09/18 09:26:40;;;;;;;;;;;;;;;25.84;36.46;101533.63;104419;1292;61309;-81
2023/09/18 09:29:19;;;;;;;9.20;4.30;;;;;;;25.84;36.46;101529.30;104757;1292;61310;-81
2023/09/18 09:31:45;;;;;;;7.90;4.60;;;;;;;25.86;36.44;101524.23;104761;1292;74333;-80
2023/09/18 09:34:11;;;;;;;10.90;4.80;;;;;;;25.87;36.42;101523.05;104376;1295;61374;-83
2023/09/18 09:36:55;;;;;;;8.60;4.20;;;;;;;25.90;36.46;101520.86;104159;1292;63081;-81
2023/09/18 09:39:21;;;;;;;9.20;4.70;;;;;;;25.94;36.32;101517.48;104750;1292;63814;-82
2023/09/18 09:41:52;;;;;;;8.40;4.60;;;;;;;25.97;36.30;101519.95;104683;1293;65987;-81
2023/09/18 09:44:18;;;;;;;6.20;4.30;;;;;;;25.98;36.34;101521.85;104449;1292;61258;-81
2023/09/18 09:46:48;;;;;;;8.70;4.70;;;;;;;25.99;36.21;101519.95;104376;1293;60304;-80
2023/09/18 09:49:17;;;;;;;8.40;4.70;;;;;;;26.00;36.02;101515.40;104451;1293;63728;-81
2023/09/18 09:51:44;;;;;;;10.00;4.60;;;;;;;26.00;35.90;101518.10;104680;1294;65691;-82
2023/09/18 09:54:12;;;;;;;7.20;4.60;;;;;;;25.96;35.97;101513.88;104812;1294;61271;-82
2023/09/18 09:56:53;;;;;;;12.90;4.50;;;;;;;25.95;35.96;101511.43;104627;1294;61338;-83
2023/09/18 09:59:20;;;;;;;9.40;4.60;;;;;;;25.97;36.04;101507.70;105838;1292;64049;-82
2023/09/18 10:01:51;;;;;;;11.40;4.70;;;;;;;26.01;36.19;101504.84;105835;1290;58668;-83
2023/09/18 10:04:18;;;;;;;13.80;4.80;;;;;;;26.05;36.24;101500.95;105599;1293;59418;-82
2023/09/18 10:06:46;;;;;;;17.30;4.90;;;;;;;26.07;36.15;101497.31;105850;1291;58730;-83
2023/09/18 10:09:12;;;;;;;12.10;4.80;;;;;;;26.06;36.02;101499.40;104592;1293;64101;-83
2023/09/18 10:11:41;;;;;;;15.80;5.00;;;;;;;25.95;36.05;101490.52;104696;1298;61346;-82
2023/09/18 10:14:17;;;;;;;11.90;4.80;;;;;;;25.90;36.24;101493.05;104502;1294;61361;-82
2023/09/18 10:16:47;;;;;;;7.40;4.70;;;;;;;25.88;36.41;101493.11;104909;1293;59833;-82
2023/09/18 10:19:47;;;;;;;7.70;4.50;;;;;;;25.85;36.39;101486.08;105044;1294;63605;-82
2023/09/18 10:22:37;;;;;;;8.50;4.50;;;;;;;25.87;36.42;101479.06;104920;1290;65871;-82
2023/09/18 10:25:19;;;;;;;9.30;4.90;;;;;;;25.90;36.48;101479.19;104380;1293;61303;-82
2023/09/18 10:27:49;;;;;;;12.10;4.70;;;;;;;25.93;36.33;101479.48;104557;1293;62261;-82
2023/09/18 10:30:19;;;;;;;7.70;4.50;;;;;;;25.96;36.40;101477.46;104401;1293;63672;-82
2023/09/18 10:32:46;;;;;;;9.40;4.80;;;;;;;25.99;36.28;101475.08;104676;1290;65924;-83
2023/09/18 10:35:12;;;;;;;7.30;4.70;;;;;;;25.98;36.32;101474.60;104549;1294;61285;-82
2023/09/18 10:37:38;;;;;;;10.50;5.20;;;;;;;25.99;36.41;101467.85;104436;1293;61333;-83
2023/09/18 10:40:07;;;;;;;11.50;4.70;;;;;;;26.01;36.41;101468.92;104474;1291;61256;-83
2023/09/18 10:42:34;;;;;;;7.70;4.70;;;;;;;26.04;36.40;101466.56;104589;1293;65975;-82
2023/09/18 10:45:01;;;;;;;10.00;4.70;;;;;;;26.06;36.25;101464.21;104512;1293;61208;-82
2023/09/18 10:47:27;;;;;;;9.10;4.60;;;;;;;26.08;36.26;101461.87;104466;1293;60959;-80
2023/09/18 10:49:54;;;;;;;6.40;4.30;;;;;;;26.10;36.25;101462.83;104793;1293;61430;-82
2023/09/18 10:52:19;;;;;;;8.30;4.50;;;;;;;26.11;36.15;101460.42;104679;1293;61538;-82
2023/09/18 10:54:45;;;;;;;9.80;4.50;;;;;;;26.12;35.98;101453.08;104562;1294;63183;-82
2023/09/18 10:57:10;;;;;;;6.80;4.50;;;;;;;26.14;36.03;101450.78;104449;1294;61266;-81
2023/09/18 10:59:45;;;;;;;9.50;4.60;;;;;;;26.14;35.97;101453.13;104590;1296;61308;-82
2023/09/18 11:02:16;;;;;;;11.50;5.00;;;;;;;26.14;35.95;101444.67;105671;1292;66835;-83
2023/09/18 11:04:45;;;;;;;10.20;4.80;;;;;;;26.12;35.91;101444.08;105852;1293;58730;-84
2023/09/18 11:07:21;;;;;;;13.40;5.50;;;;;;;26.13;35.94;101437.88;105606;1293;58528;-83
2023/09/18 11:09:47;;;;;;;12.80;5.40;;;;;;;26.14;35.88;101440.11;105724;1293;63959;-82
2023/09/18 11:12:17;;;;;;;10.90;4.70;;;;;;;26.14;35.58;101432.74;105912;1295;59007;-82
2023/09/18 11:14:56;;;;;;;8.60;5.30;;;;;;;26.14;35.53;101435.42;105845;1293;58373;-83